Time;durP1;ratioP1;P1;durP2;ratioP2;P2;SDS_P1;SDS_P2;PMS_P1;PMS_P2;Temp;Humidity;BMP_temperature;BMP_pressure;BME280_temperature;BME280_humidity;BME280_pressure;Samples;Min_cycle;Max_cycle;Signal;HPM_P1;HPM_P2
2022/02/04 00:23:33;;;;;;;3.30;0.93;;;-0.30;81.90;;;;;;5003375;28;20192;-75
2022/02/04 00:26:10;;;;;;;1.60;0.57;;;-0.30;82.00;;;;;;4984251;28;20643;-75
2022/02/04 00:31:26;;;;;;;0.43;0.43;;;-0.40;82.00;;;;;;5003358;28;20671;-74
2022/02/04 00:33:56;;;;;;;0.27;0.27;;;-0.40;82.00;;;;;;4985446;28;20208;-75
2022/02/04 00:36:37;;;;;;;0.40;0.40;;;-0.40;82.00;;;;;;5003530;28;20270;-75
2022/02/04 00:39:09;;;;;;;0.97;0.97;;;-0.50;82.00;;;;;;5001454;28;20204;-75
2022/02/04 00:41:37;;;;;;;1.53;1.33;;;-0.40;82.00;;;;;;5005986;28;20246;-75
2022/02/04 00:44:05;;;;;;;1.83;0.97;;;-0.40;82.10;;;;;;4986264;28;20196;-75
2022/02/04 00:47:00;;;;;;;1.23;0.70;;;-0.50;82.00;;;;;;4983748;28;20571;-75
2022/02/04 00:49:31;;;;;;;0.97;0.97;;;-0.50;82.00;;;;;;5003596;28;20200;-75
2022/02/04 00:52:07;;;;;;;0.77;0.57;;;-0.50;82.10;;;;;;5009353;28;20180;-73
2022/02/04 01:26:43;;;;;;;1.07;0.73;;;-0.80;82.60;;;;;;5007163;28;20221;-75
2022/02/04 01:29:10;;;;;;;0.60;0.60;;;-0.80;82.50;;;;;;5011782;28;20185;-76
2022/02/04 01:31:36;;;;;;;0.80;0.80;;;-0.80;82.50;;;;;;5005017;28;20216;-75
2022/02/04 01:34:02;;;;;;;0.60;0.60;;;-0.80;82.50;;;;;;5009346;28;20184;-75
2022/02/04 01:36:28;;;;;;;0.90;0.90;;;-0.80;82.50;;;;;;5015395;28;20198;-76
2022/02/04 01:38:53;;;;;;;2.97;0.60;;;-0.80;82.40;;;;;;5007637;28;20227;-75
2022/02/04 01:41:19;;;;;;;1.70;0.80;;;-0.80;82.40;;;;;;5006257;28;20211;-76
2022/02/04 01:43:45;;;;;;;0.70;0.60;;;-0.80;82.40;;;;;;5004651;28;20330;-74
2022/02/04 01:46:12;;;;;;;0.90;0.90;;;-0.80;82.40;;;;;;5009913;28;20216;-75
2022/02/04 01:48:39;;;;;;;0.60;0.60;;;-0.80;82.50;;;;;;5006137;28;20575;-75
2022/02/04 01:51:07;;;;;;;1.87;0.63;;;-0.80;82.50;;;;;;5007962;28;20197;-75
2022/02/04 01:53:35;;;;;;;0.50;0.50;;;-0.80;82.40;;;;;;5009847;28;20953;-75
2022/02/04 01:56:12;;;;;;;0.90;0.90;;;-0.80;82.40;;;;;;5004086;28;20181;-75
2022/02/04 01:58:39;;;;;;;0.53;0.53;;;-0.90;82.10;;;;;;5011846;28;20203;-75
2022/02/04 02:01:05;;;;;;;0.37;0.37;;;-0.90;82.10;;;;;;5007086;28;20242;-75
2022/02/04 02:03:32;;;;;;;3.40;0.90;;;-0.90;82.30;;;;;;5007543;28;20223;-75
2022/02/04 02:06:03;;;;;;;0.50;0.50;;;-1.00;82.30;;;;;;5011542;28;20216;-75
2022/02/04 02:08:29;;;;;;;1.80;0.80;;;-1.00;82.40;;;;;;5006509;28;20181;-74
2022/02/04 02:10:55;;;;;;;0.53;0.53;;;-1.00;82.50;;;;;;5008175;28;20690;-75
2022/02/04 02:45:56;;;;;;;0.40;0.40;;;-1.30;82.70;;;;;;5004373;28;20192;-76
2022/02/04 02:48:44;;;;;;;0.50;0.50;;;-1.30;82.90;;;;;;5009288;28;20250;-74
2022/02/04 02:59:13;;;;;;;1.00;1.00;;;-1.30;83.30;;;;;;5009324;28;20185;-75
2022/02/04 03:01:45;;;;;;;1.57;0.90;;;-1.40;83.40;;;;;;5006309;28;20228;-75
2022/02/04 03:04:14;;;;;;;1.50;0.57;;;-1.30;83.50;;;;;;5007764;28;20234;-75
2022/02/04 03:06:40;;;;;;;0.37;0.37;;;-1.30;83.50;;;;;;5008310;28;20208;-74
2022/02/04 03:09:05;;;;;;;0.63;0.63;;;-1.30;83.50;;;;;;5011509;28;20176;-74
2022/02/04 03:11:33;;;;;;;0.57;0.50;;;-1.40;83.50;;;;;;5006819;28;20284;-74
2022/02/04 03:13:59;;;;;;;0.70;0.70;;;-1.30;83.50;;;;;;5006851;28;20707;-74
2022/02/04 03:16:25;;;;;;;0.63;0.63;;;-1.30;83.40;;;;;;5008226;28;20243;-74
2022/02/04 03:18:53;;;;;;;0.70;0.70;;;-1.40;83.20;;;;;;5008507;28;20184;-74
2022/02/04 03:21:25;;;;;;;0.60;0.60;;;-1.40;83.10;;;;;;5011189;28;20208;-75
2022/02/04 03:23:58;;;;;;;1.30;0.63;;;-1.40;83.10;;;;;;5007750;28;20192;-75
2022/02/04 03:28:55;;;;;;;0.80;0.80;;;-1.40;83.30;;;;;;5004847;28;20220;-75
2022/02/04 03:31:22;;;;;;;0.77;0.77;;;-1.50;83.30;;;;;;5009318;28;20189;-74
2022/02/04 03:33:48;;;;;;;0.87;0.83;;;-1.50;83.30;;;;;;5011107;28;20184;-75
2022/02/04 03:36:14;;;;;;;0.77;0.77;;;-1.60;83.40;;;;;;5004590;28;20177;-74
2022/02/04 03:38:40;;;;;;;0.97;0.97;;;-1.60;83.70;;;;;;5009562;28;20254;-75
2022/02/04 03:41:07;;;;;;;2.47;1.37;;;-1.60;83.90;;;;;;5007534;28;20189;-75
2022/02/04 03:43:33;;;;;;;1.23;1.23;;;-1.70;84.10;;;;;;5006653;28;20211;-75
2022/02/04 03:45:59;;;;;;;1.90;1.80;;;-1.70;84.40;;;;;;5009436;28;20193;-75
2022/02/04 03:48:25;;;;;;;2.20;1.47;;;-1.80;84.60;;;;;;5007795;28;20618;-75
2022/02/04 03:50:51;;;;;;;2.37;2.17;;;-1.80;84.60;;;;;;5007020;28;20196;-75
2022/02/04 03:53:16;;;;;;;2.07;1.77;;;-1.80;84.70;;;;;;5011901;28;20270;-75
2022/02/04 03:55:42;;;;;;;2.10;1.77;;;-1.80;84.90;;;;;;5007826;28;20639;-75
2022/02/04 03:58:12;;;;;;;2.90;2.67;;;-1.80;85.00;;;;;;5010037;28;20172;-75
2022/02/04 04:00:38;;;;;;;1.67;1.60;;;-1.90;85.10;;;;;;5005144;28;20181;-75
2022/02/04 04:03:04;;;;;;;1.60;1.47;;;-1.90;85.20;;;;;;5010893;28;20231;-75
2022/02/04 04:05:30;;;;;;;3.57;2.53;;;-1.90;85.40;;;;;;5009809;28;20189;-75
2022/02/04 04:07:57;;;;;;;5.63;2.10;;;-1.90;85.40;;;;;;5007728;28;20208;-75
2022/02/04 04:10:27;;;;;;;3.80;3.03;;;-2.00;85.30;;;;;;5006065;28;20181;-75
2022/02/04 04:12:57;;;;;;;2.53;1.87;;;-2.00;85.60;;;;;;5005765;28;20564;-75
2022/02/04 04:15:23;;;;;;;10.10;2.90;;;-2.10;85.70;;;;;;5008770;28;20181;-75
2022/02/04 04:17:49;;;;;;;2.20;2.03;;;-2.10;85.70;;;;;;5006802;28;20184;-75
2022/02/04 04:20:19;;;;;;;2.03;1.93;;;-2.10;85.80;;;;;;5004135;28;20240;-75
2022/02/04 04:22:46;;;;;;;2.77;2.57;;;-2.10;86.10;;;;;;5007012;28;20304;-75
2022/02/04 04:25:13;;;;;;;2.27;2.07;;;-2.20;86.20;;;;;;5004186;28;20189;-75
2022/02/04 04:27:40;;;;;;;2.63;2.43;;;-2.20;86.30;;;;;;5007910;28;20200;-74
2022/02/04 04:30:08;;;;;;;3.17;2.27;;;-2.20;86.30;;;;;;5004364;28;20937;-74
2022/02/04 04:32:34;;;;;;;2.60;2.37;;;-2.20;86.40;;;;;;5006326;28;20275;-75
2022/02/04 04:35:00;;;;;;;5.60;3.17;;;-2.20;86.40;;;;;;5008737;28;20506;-74
2022/02/04 04:37:26;;;;;;;2.70;2.50;;;-2.10;86.40;;;;;;5007083;28;20702;-76
2022/02/04 04:42:39;;;;;;;3.37;2.53;;;-2.10;86.50;;;;;;5009656;28;20999;-75
2022/02/04 05:29:15;;;;;;;1.60;1.50;;;-2.00;86.50;;;;;;5003007;28;20231;-74
2022/02/04 05:31:40;;;;;;;2.43;2.33;;;-2.00;86.50;;;;;;5002815;28;20195;-74
2022/02/04 05:34:06;;;;;;;2.10;1.67;;;-1.90;86.50;;;;;;5001032;28;20185;-74
2022/02/04 05:36:36;;;;;;;1.50;1.43;;;-1.90;86.50;;;;;;5005973;28;20191;-74
2022/02/04 05:39:02;;;;;;;1.87;1.77;;;-1.90;86.40;;;;;;5009985;28;20283;-74
2022/02/04 05:41:32;;;;;;;1.90;1.70;;;-1.90;86.50;;;;;;5003058;28;20235;-73
2022/02/04 05:44:01;;;;;;;2.17;1.40;;;-1.80;86.50;;;;;;5007463;28;20185;-74
2022/02/04 05:46:32;;;;;;;2.03;1.73;;;-1.80;86.50;;;;;;5007412;28;20199;-73
2022/02/04 05:48:59;;;;;;;2.20;2.10;;;-1.80;86.50;;;;;;5007991;28;20949;-74
2022/02/04 05:59:09;;;;;;;2.43;2.00;;;-1.80;86.40;;;;;;5008391;28;20636;-73
2022/02/04 06:22:54;;;;;;;1.70;1.50;;;-1.60;86.60;;;;;;5004554;28;20835;-74
2022/02/04 06:25:20;;;;;;;2.07;1.63;;;-1.60;86.60;;;;;;5007096;28;20177;-74
2022/02/04 06:27:46;;;;;;;2.57;2.37;;;-1.50;86.50;;;;;;5010734;28;20189;-74
2022/02/04 06:30:13;;;;;;;1.93;1.83;;;-1.50;86.50;;;;;;5005357;28;20185;-74
2022/02/04 06:32:39;;;;;;;1.83;1.33;;;-1.50;86.50;;;;;;5007355;28;20735;-74
2022/02/04 06:35:07;;;;;;;1.67;0.97;;;-1.50;86.50;;;;;;5008910;28;20192;-73
2022/02/04 06:37:33;;;;;;;1.97;1.97;;;-1.40;86.30;;;;;;5002628;28;20238;-73
2022/02/04 06:39:59;;;;;;;2.47;2.27;;;-1.40;86.50;;;;;;5003382;28;20192;-75
2022/02/04 06:42:26;;;;;;;2.03;1.83;;;-1.40;86.30;;;;;;5007690;28;20216;-74
2022/02/04 06:44:53;;;;;;;2.03;1.87;;;-1.30;86.30;;;;;;5004197;28;20677;-74
2022/02/04 06:47:19;;;;;;;3.50;2.20;;;-1.30;86.30;;;;;;5008986;28;20622;-73
2022/02/04 06:49:46;;;;;;;5.90;1.63;;;-1.30;86.20;;;;;;5010285;28;20180;-74
2022/02/04 06:52:13;;;;;;;2.13;1.53;;;-1.20;86.10;;;;;;5008099;28;21022;-73
2022/02/04 06:54:39;;;;;;;4.77;2.23;;;-1.20;86.00;;;;;;5002834;28;20185;-74
2022/02/04 06:57:05;;;;;;;6.73;2.60;;;-1.20;85.90;;;;;;5005382;28;20234;-75
2022/02/04 06:59:31;;;;;;;1.43;1.30;;;-1.20;85.80;;;;;;5007206;28;20204;-76
2022/02/04 07:01:57;;;;;;;5.60;2.07;;;-1.20;85.70;;;;;;5006681;28;20208;-76
2022/02/04 07:04:25;;;;;;;2.30;1.93;;;-1.20;85.70;;;;;;5004991;28;20189;-77
2022/02/04 07:06:55;;;;;;;2.13;2.03;;;-1.20;85.70;;;;;;5000698;28;20311;-77
2022/02/04 07:19:53;;;;;;;2.50;2.30;;;-1.00;85.40;;;;;;5021148;28;20187;-73
2022/02/04 07:22:31;;;;;;;2.70;1.80;;;-1.00;85.10;;;;;;5023339;28;20286;-72
2022/02/04 07:25:00;;;;;;;2.70;2.50;;;-0.90;85.30;;;;;;5007496;28;20282;-73
2022/02/04 07:27:31;;;;;;;3.33;2.70;;;-0.80;85.30;;;;;;5018803;28;20196;-72
2022/02/04 07:29:57;;;;;;;2.00;1.87;;;-0.70;85.40;;;;;;5015666;28;20770;-72
2022/02/04 07:42:53;;;;;;;2.67;2.47;;;2.30;83.70;;;;;;5025643;28;20227;-73
2022/02/04 07:45:21;;;;;;;3.17;2.87;;;3.20;82.30;;;;;;5019258;28;20287;-73
2022/02/04 07:47:51;;;;;;;5.70;3.83;;;3.90;78.60;;;;;;5022660;28;20235;-74
2022/02/04 07:50:20;;;;;;;4.07;3.67;;;4.40;75.40;;;;;;5003077;28;21048;-71
2022/02/04 07:52:54;;;;;;;4.43;3.63;;;5.00;75.00;;;;;;5001779;28;20219;-70
2022/02/04 07:55:21;;;;;;;8.53;4.33;;;5.50;73.30;;;;;;4998304;28;20192;-70
2022/02/04 07:57:48;;;;;;;9.10;5.30;;;6.10;73.20;;;;;;5002473;28;20207;-72
2022/02/04 08:00:16;;;;;;;4.33;3.97;;;6.70;71.40;;;;;;5006736;28;20275;-71
2022/02/04 08:02:44;;;;;;;8.17;5.07;;;6.80;67.30;;;;;;4984586;28;20236;-73
2022/02/04 08:05:14;;;;;;;5.73;5.13;;;7.30;68.50;;;;;;5006644;28;20278;-72
2022/02/04 08:07:51;;;;;;;9.87;5.57;;;7.60;68.20;;;;;;5007246;28;20262;-71
2022/02/04 08:54:14;;;;;;;15.73;9.43;;;12.10;59.30;;;;;;5001491;28;20189;-73
2022/02/04 08:57:05;;;;;;;18.70;11.27;;;12.50;59.80;;;;;;5004742;28;20222;-74
2022/02/04 08:59:44;;;;;;;17.35;12.93;;;12.90;58.50;;;;;;4999748;28;20203;-72
2022/02/04 09:02:17;;;;;;;32.47;15.05;;;13.20;56.70;;;;;;5003322;28;20730;-73
2022/02/04 09:04:47;;;;;;;26.70;16.05;;;13.40;55.80;;;;;;5001234;28;20280;-72
2022/02/04 09:07:15;;;;;;;34.17;16.90;;;13.30;55.60;;;;;;5005949;28;20189;-72
2022/02/04 09:10:17;;;;;;;27.45;16.20;;;13.40;55.70;;;;;;5006126;28;20184;-72
2022/02/04 09:20:27;;;;;;;41.58;19.73;;;13.40;54.80;;;;;;5008753;28;20609;-73
2022/02/04 09:22:53;;;;;;;34.17;19.90;;;13.60;54.40;;;;;;5007578;28;20204;-71
2022/02/04 09:25:18;;;;;;;35.25;20.00;;;13.90;54.70;;;;;;5009262;28;20192;-74
2022/02/04 09:27:45;;;;;;;32.10;18.85;;;14.20;54.60;;;;;;5005994;28;21004;-73
2022/02/04 09:30:13;;;;;;;33.88;19.35;;;14.50;54.30;;;;;;5006147;28;20217;-73
2022/02/04 09:32:40;;;;;;;30.40;17.70;;;14.90;54.30;;;;;;5011756;28;20274;-73
2022/02/04 09:35:09;;;;;;;30.30;17.95;;;15.50;53.80;;;;;;5003623;28;20217;-73
2022/02/04 09:37:36;;;;;;;28.15;17.25;;;16.20;54.20;;;;;;5005368;28;20221;-73
2022/02/04 09:40:06;;;;;;;36.78;17.08;;;16.80;51.60;;;;;;5010979;28;20609;-73
2022/02/04 09:42:32;;;;;;;26.90;16.83;;;17.10;50.30;;;;;;5010313;28;20222;-72
2022/02/04 09:44:59;;;;;;;27.38;16.27;;;17.50;50.60;;;;;;5006201;28;20193;-73
2022/02/04 09:47:33;;;;;;;27.55;16.23;;;17.70;50.00;;;;;;5007195;28;20262;-72
2022/02/04 09:50:01;;;;;;;30.42;16.85;;;17.90;48.80;;;;;;5022693;28;20570;-72
2022/02/04 10:12:11;;;;;;;28.95;16.35;;;18.10;47.90;;;;;;5025839;28;20215;-73
2022/02/04 10:22:29;;;;;;;24.08;16.65;;;17.60;47.90;;;;;;4967554;28;20229;-72
2022/02/04 10:25:09;;;;;;;26.50;16.70;;;17.50;48.20;;;;;;4949318;28;20199;-72
2022/02/04 10:27:36;;;;;;;31.23;16.20;;;17.60;47.90;;;;;;4965747;28;20696;-71
2022/02/04 10:30:11;;;;;;;26.48;16.48;;;17.60;49.30;;;;;;4968896;28;20653;-73
2022/02/04 10:32:43;;;;;;;23.38;15.43;;;17.80;48.50;;;;;;4963181;28;20734;-72
2022/02/04 10:35:21;;;;;;;21.80;15.10;;;18.10;48.30;;;;;;4964638;28;20638;-72
2022/02/04 10:38:10;;;;;;;23.30;15.50;;;18.40;47.80;;;;;;4947628;28;20198;-71
2022/02/04 10:40:55;;;;;;;24.23;15.30;;;18.80;48.50;;;;;;4947814;28;20644;-71
2022/02/04 11:10:03;;;;;;;19.70;14.77;;;20.40;44.10;;;;;;4981077;28;20226;-71
2022/02/04 11:52:25;;;;;;;16.35;12.18;;;12.90;54.40;;;;;;5008269;28;20200;-72
2022/02/04 11:54:54;;;;;;;22.80;13.73;;;13.00;53.50;;;;;;5007976;28;20271;-72
2022/02/04 11:58:03;;;;;;;17.23;12.98;;;13.40;53.20;;;;;;5007225;28;20191;-73
2022/02/04 12:00:31;;;;;;;22.10;13.13;;;14.00;53.00;;;;;;5003617;28;20192;-74
2022/02/04 12:02:57;;;;;;;22.50;13.93;;;14.50;52.50;;;;;;5005959;28;20221;-73
2022/02/04 12:05:23;;;;;;;19.52;11.70;;;15.00;51.20;;;;;;5007001;28;20873;-72
2022/02/04 12:07:50;;;;;;;25.15;13.38;;;15.60;51.60;;;;;;5004472;28;20177;-73
2022/02/04 12:10:16;;;;;;;16.05;12.35;;;16.10;49.80;;;;;;5008022;28;20189;-73
2022/02/04 12:12:59;;;;;;;19.77;12.85;;;16.70;49.90;;;;;;5008443;28;20567;-71
2022/02/04 12:15:30;;;;;;;22.45;14.50;;;17.30;48.70;;;;;;5004028;28;20192;-72
2022/02/04 12:18:01;;;;;;;19.92;13.57;;;17.70;47.10;;;;;;5006594;28;20288;-72
2022/02/04 12:20:53;;;;;;;22.20;13.18;;;18.10;48.20;;;;;;5004898;28;20282;-72
2022/02/04 12:23:28;;;;;;;19.65;12.77;;;18.40;48.00;;;;;;5002665;28;20217;-73
2022/02/04 12:25:54;;;;;;;26.52;14.82;;;18.60;47.50;;;;;;5005012;28;21034;-72
2022/02/04 12:28:55;;;;;;;22.48;13.38;;;18.80;46.80;;;;;;5005188;28;20184;-73
2022/02/04 12:31:24;;;;;;;24.42;14.50;;;18.70;45.20;;;;;;5006200;28;20192;-73
2022/02/04 12:33:55;;;;;;;19.77;13.13;;;18.50;46.40;;;;;;5024140;28;20188;-72
2022/02/04 12:36:31;;;;;;;25.85;14.75;;;18.30;47.80;;;;;;5024650;28;20220;-73
2022/02/04 12:39:01;;;;;;;24.58;13.85;;;18.30;47.20;;;;;;5025077;28;20203;-73
2022/02/04 12:41:35;;;;;;;22.92;13.60;;;18.30;47.50;;;;;;5025651;28;20195;-74
2022/02/04 12:44:06;;;;;;;19.38;13.60;;;18.20;47.20;;;;;;5020128;28;20184;-73
2022/02/04 12:46:33;;;;;;;17.38;12.40;;;18.10;46.90;;;;;;5020256;28;20215;-73
2022/02/04 12:49:01;;;;;;;19.27;13.43;;;18.10;47.00;;;;;;5022156;28;20275;-73
2022/02/04 12:51:51;;;;;;;21.27;13.00;;;17.90;46.60;;;;;;5017541;28;20346;-72
2022/02/04 12:54:33;;;;;;;16.20;13.10;;;17.50;46.80;;;;;;5027078;28;20227;-72
2022/02/04 13:02:42;;;;;;;19.27;13.55;;;17.10;47.50;;;;;;5024399;28;20293;-74
2022/02/04 13:10:32;;;;;;;20.45;12.70;;;16.30;49.40;;;;;;5006389;28;20336;-75
2022/02/04 13:13:04;;;;;;;24.20;14.85;;;15.80;49.60;;;;;;5009584;28;20203;-74
2022/02/04 13:15:33;;;;;;;19.38;13.52;;;15.40;48.70;;;;;;5011136;28;20190;-74
2022/02/04 13:18:00;;;;;;;20.23;13.30;;;14.90;49.30;;;;;;5007368;28;20185;-73
2022/02/04 13:20:26;;;;;;;19.52;12.55;;;15.00;51.00;;;;;;5008993;28;20180;-74
2022/02/04 13:22:54;;;;;;;22.52;13.55;;;14.80;50.90;;;;;;5000535;28;20216;-73
2022/02/04 13:25:25;;;;;;;19.75;12.43;;;14.60;50.50;;;;;;5008908;28;20180;-73
2022/02/04 13:28:04;;;;;;;18.25;12.35;;;14.40;50.20;;;;;;5004900;28;20188;-73
2022/02/04 13:30:33;;;;;;;17.45;12.10;;;14.00;51.40;;;;;;5009802;28;20601;-73
2022/02/04 13:33:01;;;;;;;18.80;10.55;;;13.90;50.60;;;;;;5006317;28;21013;-73
2022/02/04 13:35:33;;;;;;;15.20;11.13;;;13.90;51.40;;;;;;5013291;28;20605;-73
2022/02/04 13:38:12;;;;;;;15.45;11.85;;;13.90;51.60;;;;;;5010776;28;20197;-73
2022/02/04 13:40:53;;;;;;;22.08;12.60;;;14.00;52.20;;;;;;5009451;28;20181;-73
2022/02/04 13:43:33;;;;;;;12.63;10.60;;;14.10;51.40;;;;;;5006862;28;20205;-73
2022/02/04 13:46:18;;;;;;;11.52;10.32;;;13.80;52.10;;;;;;5009772;28;20763;-73
2022/02/04 13:49:23;;;;;;;15.98;9.98;;;13.40;52.40;;;;;;5015314;28;20196;-74
2022/02/04 13:51:45;;;;;;;16.92;10.52;;;13.20;52.60;;;;;;5017212;28;20193;-73
2022/02/04 13:54:39;;;;;;;13.00;10.25;;;12.90;52.80;;;;;;5013501;28;20215;-73
2022/02/04 14:00:14;;;;;;;12.88;9.18;;;12.60;53.10;;;;;;5016260;28;20211;-74
2022/02/04 14:02:44;;;;;;;14.48;9.13;;;12.30;53.30;;;;;;5013504;28;20208;-73
2022/02/04 14:05:11;;;;;;;16.17;10.15;;;12.10;53.50;;;;;;5012942;28;20300;-75
2022/02/04 14:07:43;;;;;;;15.15;10.32;;;11.80;54.70;;;;;;5009822;28;20232;-73
2022/02/04 14:10:17;;;;;;;15.02;11.45;;;11.50;55.10;;;;;;5010215;28;20189;-73
2022/02/04 14:12:43;;;;;;;20.83;12.18;;;11.20;56.10;;;;;;5008202;28;20214;-72
2022/02/04 14:15:09;;;;;;;17.30;10.85;;;11.00;56.10;;;;;;5012547;28;20181;-75
2022/02/04 14:17:36;;;;;;;15.38;11.40;;;10.90;56.10;;;;;;5004496;28;20588;-74
2022/02/04 14:20:02;;;;;;;21.10;12.02;;;10.70;56.70;;;;;;5005731;28;20196;-75
2022/02/04 14:22:28;;;;;;;16.77;12.60;;;10.50;57.10;;;;;;5013242;28;20250;-75
2022/02/04 14:24:54;;;;;;;23.63;12.15;;;10.40;57.20;;;;;;5004458;28;20208;-75
2022/02/04 14:27:19;;;;;;;22.20;12.40;;;10.20;57.50;;;;;;5014979;28;20189;-74
2022/02/04 14:29:58;;;;;;;17.80;12.10;;;10.00;57.90;;;;;;5017994;28;20176;-76
2022/02/04 14:32:35;;;;;;;23.23;12.82;;;9.70;58.20;;;;;;5010002;28;20831;-74
2022/02/04 14:35:09;;;;;;;20.40;13.48;;;9.50;58.90;;;;;;5008874;28;20185;-74
2022/02/04 14:53:59;;;;;;;19.38;9.73;;;8.00;61.20;;;;;;5010885;28;20953;-75
2022/02/04 14:59:31;;;;;;;14.27;9.33;;;7.80;61.40;;;;;;5012934;28;20211;-75
2022/02/04 15:02:11;;;;;;;13.93;9.13;;;7.80;61.30;;;;;;5002705;28;20247;-76
2022/02/04 15:04:45;;;;;;;15.57;9.50;;;7.70;61.00;;;;;;5009106;28;20254;-76
2022/02/04 15:07:12;;;;;;;21.47;9.67;;;7.50;61.30;;;;;;5008995;28;20269;-75
2022/02/04 15:09:43;;;;;;;14.30;8.90;;;7.40;61.60;;;;;;5006520;28;20838;-75
2022/02/04 15:12:09;;;;;;;18.37;10.17;;;7.20;62.00;;;;;;5006982;28;20280;-75
2022/02/04 15:14:35;;;;;;;16.67;9.53;;;7.20;62.40;;;;;;5007264;28;20184;-75
2022/02/04 15:17:01;;;;;;;21.00;9.30;;;7.20;62.50;;;;;;5009377;28;21789;-74
2022/02/04 15:19:32;;;;;;;12.50;9.37;;;7.10;62.70;;;;;;5009946;28;20187;-74
2022/02/04 15:22:00;;;;;;;11.80;8.27;;;7.00;62.70;;;;;;5005410;28;20212;-75
2022/02/04 15:24:26;;;;;;;17.13;9.47;;;7.00;62.90;;;;;;5006894;28;20622;-75
2022/02/04 15:26:51;;;;;;;14.50;8.83;;;6.90;63.30;;;;;;5009978;28;20183;-75
2022/02/04 15:29:18;;;;;;;10.90;8.07;;;6.80;63.50;;;;;;5005561;28;20227;-75
2022/02/04 15:31:56;;;;;;;18.33;7.50;;;6.80;63.40;;;;;;5008040;28;20180;-75
2022/02/04 15:34:24;;;;;;;11.73;7.47;;;6.70;63.10;;;;;;5009678;28;20192;-75
2022/02/04 15:36:50;;;;;;;14.07;8.80;;;6.60;63.70;;;;;;5007480;28;20215;-76
2022/02/04 15:39:17;;;;;;;11.50;7.77;;;6.40;63.80;;;;;;5003436;28;20201;-76
2022/02/04 15:41:43;;;;;;;15.57;8.50;;;6.30;63.70;;;;;;5004867;28;20319;-75
2022/02/04 15:50:17;;;;;;;9.90;7.23;;;5.60;64.90;;;;;;5027155;28;20191;-75
2022/02/04 15:57:46;;;;;;;9.67;6.70;;;5.10;66.00;;;;;;5022188;28;20265;-76
2022/02/04 16:05:41;;;;;;;10.40;6.93;;;4.80;66.50;;;;;;5022493;28;20206;-77
2022/02/04 16:08:09;;;;;;;10.60;7.27;;;4.80;66.50;;;;;;5008571;28;20273;-76
2022/02/04 16:10:56;;;;;;;11.07;6.57;;;4.70;66.20;;;;;;5007839;28;20189;-76
2022/02/04 16:19:06;;;;;;;8.80;7.57;;;4.40;67.20;;;;;;4999283;28;20288;-76
2022/02/04 16:22:02;;;;;;;11.97;6.90;;;4.40;67.20;;;;;;4983148;28;21116;-76
2022/02/04 16:29:46;;;;;;;14.23;7.90;;;4.20;67.70;;;;;;4980555;28;20198;-76
2022/02/04 16:32:13;;;;;;;11.30;7.73;;;4.20;67.80;;;;;;4980640;28;20217;-76
2022/02/04 16:34:39;;;;;;;11.10;7.67;;;4.20;68.10;;;;;;4980447;28;20198;-76
2022/02/04 16:37:16;;;;;;;11.73;7.07;;;4.20;67.40;;;;;;4963831;28;20692;-77
2022/02/04 16:39:44;;;;;;;10.53;8.33;;;4.20;67.80;;;;;;4963653;28;20193;-77
2022/02/04 16:42:15;;;;;;;13.60;8.17;;;4.20;67.90;;;;;;4962611;28;20311;-77
2022/02/04 16:44:41;;;;;;;12.67;8.13;;;4.10;68.30;;;;;;4963978;28;20738;-77
2022/02/04 16:47:08;;;;;;;10.90;8.00;;;4.10;67.60;;;;;;4981396;28;20201;-77
2022/02/04 16:49:34;;;;;;;14.30;8.90;;;4.10;68.10;;;;;;4980956;28;20276;-77
2022/02/04 16:52:01;;;;;;;22.40;10.50;;;4.10;68.20;;;;;;4964884;28;20216;-76
2022/02/04 16:54:28;;;;;;;19.47;10.77;;;4.10;68.90;;;;;;4980353;28;20198;-76
2022/02/04 16:56:55;;;;;;;13.97;8.93;;;4.00;69.60;;;;;;4984213;28;20216;-77
2022/02/04 16:59:41;;;;;;;13.87;9.47;;;4.00;69.70;;;;;;4981332;28;20439;-77
2022/02/04 17:02:07;;;;;;;16.53;9.77;;;4.00;69.80;;;;;;4979680;28;20431;-77
2022/02/04 17:04:32;;;;;;;16.50;9.53;;;4.00;69.50;;;;;;4963604;28;20193;-77
2022/02/04 17:07:05;;;;;;;14.40;9.93;;;4.00;69.30;;;;;;5011012;28;20779;-76
2022/02/04 17:09:38;;;;;;;16.83;10.47;;;4.00;69.50;;;;;;5021723;28;20199;-76
2022/02/04 17:12:07;;;;;;;18.83;10.97;;;4.00;69.70;;;;;;5021859;28;20241;-76
2022/02/04 17:14:37;;;;;;;18.43;10.20;;;4.00;69.80;;;;;;5023013;28;20660;-76
2022/02/04 17:17:06;;;;;;;19.67;11.37;;;4.00;69.80;;;;;;5040247;28;20180;-76
2022/02/04 17:19:44;;;;;;;19.40;11.23;;;4.00;69.70;;;;;;5038515;28;20743;-77
2022/02/04 17:22:12;;;;;;;21.13;10.93;;;4.00;69.60;;;;;;5038912;28;20301;-75
2022/02/04 17:24:38;;;;;;;25.27;12.00;;;4.00;69.80;;;;;;5037790;28;20191;-76
2022/02/04 17:27:04;;;;;;;22.30;12.43;;;4.00;69.80;;;;;;5038590;28;20226;-76
2022/02/04 17:29:32;;;;;;;16.27;11.33;;;4.00;69.70;;;;;;5038877;28;20670;-75
2022/02/04 17:31:58;;;;;;;20.33;10.80;;;3.90;69.90;;;;;;5014862;28;20558;-76
2022/02/04 17:34:24;;;;;;;21.67;11.00;;;3.90;69.80;;;;;;5010763;28;20552;-76
2022/02/04 17:36:50;;;;;;;25.60;12.73;;;3.90;69.80;;;;;;5007140;28;20199;-75
2022/02/04 17:39:21;;;;;;;19.87;10.97;;;3.90;69.90;;;;;;5002746;28;20682;-76
2022/02/04 17:41:50;;;;;;;24.60;12.30;;;3.90;69.90;;;;;;5006078;28;20195;-77
2022/02/04 17:44:18;;;;;;;26.83;12.53;;;3.90;69.80;;;;;;5009160;28;20192;-77
2022/02/04 17:46:45;;;;;;;28.70;13.53;;;3.80;70.00;;;;;;5014256;28;20189;-77
2022/02/04 17:49:18;;;;;;;21.93;11.87;;;3.80;70.20;;;;;;5011608;28;20651;-77
2022/02/04 17:51:51;;;;;;;24.87;12.80;;;3.80;70.40;;;;;;5004739;28;20212;-76
2022/02/04 17:54:26;;;;;;;26.80;14.43;;;3.70;70.40;;;;;;5011611;28;20564;-78
2022/02/04 17:57:02;;;;;;;28.63;13.37;;;3.60;70.50;;;;;;5009966;28;20322;-79
2022/02/04 18:02:07;;;;;;;24.00;12.83;;;3.50;71.00;;;;;;5011330;28;20659;-78
2022/02/04 18:07:22;;;;;;;29.27;15.27;;;3.30;71.60;;;;;;5008793;28;20187;-74
2022/02/04 18:09:49;;;;;;;34.10;17.67;;;3.20;71.70;;;;;;5009774;28;20267;-78
2022/02/04 18:12:20;;;;;;;42.13;20.17;;;3.20;71.90;;;;;;5015125;28;20968;-77
2022/02/04 18:14:46;;;;;;;41.13;20.47;;;3.10;72.80;;;;;;5006526;28;20196;-76
2022/02/04 18:17:12;;;;;;;47.83;20.03;;;3.00;72.80;;;;;;5010162;28;20841;-76
2022/02/04 18:19:40;;;;;;;48.97;22.27;;;2.90;73.30;;;;;;5008123;28;20208;-76
2022/02/04 18:22:06;;;;;;;47.60;24.83;;;2.80;73.60;;;;;;5011652;28;20605;-77
2022/02/04 18:24:31;;;;;;;48.43;22.33;;;2.70;73.60;;;;;;5009765;28;20181;-73
2022/02/04 18:26:57;;;;;;;50.00;25.83;;;2.70;73.40;;;;;;5009941;28;20214;-73
2022/02/04 18:29:23;;;;;;;44.43;23.53;;;2.60;73.40;;;;;;5012179;28;20177;-73
2022/02/04 18:31:49;;;;;;;47.80;24.00;;;2.60;73.40;;;;;;5006348;28;20185;-77
2022/02/04 18:34:17;;;;;;;50.30;23.40;;;2.50;73.50;;;;;;5009336;28;20191;-78
2022/02/04 18:36:44;;;;;;;56.13;23.53;;;2.50;73.60;;;;;;5009473;28;20676;-74
2022/02/04 18:42:07;;;;;;;46.70;20.57;;;2.40;73.80;;;;;;5007216;28;20189;-75
2022/02/04 18:44:35;;;;;;;40.83;19.57;;;2.40;73.70;;;;;;5005794;28;20513;-75
2022/02/04 18:47:22;;;;;;;38.10;17.67;;;2.30;73.00;;;;;;5005771;28;20925;-76
2022/02/04 18:49:57;;;;;;;38.60;17.83;;;2.20;73.20;;;;;;5013553;28;20188;-76
2022/02/04 18:52:39;;;;;;;36.93;18.03;;;2.20;73.20;;;;;;5028091;28;20234;-76
2022/02/04 18:57:55;;;;;;;34.10;16.27;;;2.10;73.20;;;;;;5021884;28;20222;-76
2022/02/04 19:00:21;;;;;;;35.53;16.10;;;2.10;73.30;;;;;;5025248;28;20367;-76
2022/02/04 19:02:51;;;;;;;38.40;18.53;;;2.00;73.70;;;;;;5005975;28;21629;-76
2022/02/04 19:05:22;;;;;;;36.60;19.30;;;2.00;74.20;;;;;;5027916;28;20188;-76
2022/02/04 19:08:05;;;;;;;28.53;16.83;;;2.00;74.50;;;;;;5007443;28;20188;-76
2022/02/04 19:10:34;;;;;;;27.80;14.80;;;1.90;74.80;;;;;;5010982;28;20721;-76
2022/02/04 19:13:09;;;;;;;28.10;15.10;;;1.90;74.90;;;;;;5023253;28;20638;-76
2022/02/04 19:15:50;;;;;;;31.73;14.47;;;1.80;74.80;;;;;;5011339;28;20673;-75
2022/02/04 19:18:27;;;;;;;30.50;16.37;;;1.80;75.30;;;;;;5026700;28;20226;-76
2022/02/04 19:21:38;;;;;;;41.80;18.77;;;1.70;76.90;;;;;;5026048;28;20176;-76
2022/02/04 19:23:52;;;;;;;29.53;15.10;;;1.60;77.50;;;;;;5024960;28;20226;-76
2022/02/04 19:26:25;;;;;;;24.33;14.13;;;1.60;76.90;;;;;;5028831;28;20768;-76
2022/02/04 19:28:51;;;;;;;24.47;13.93;;;1.60;76.90;;;;;;5016482;28;20192;-75
2022/02/04 19:31:17;;;;;;;27.00;14.53;;;1.60;76.80;;;;;;5031473;28;20184;-77
2022/02/04 19:33:43;;;;;;;30.43;14.90;;;1.50;76.90;;;;;;5021758;28;20203;-76
2022/02/04 19:36:11;;;;;;;31.77;16.77;;;1.50;76.90;;;;;;5008854;28;20201;-76
2022/02/04 19:38:38;;;;;;;32.27;17.80;;;1.50;77.20;;;;;;5009332;28;20201;-77
2022/02/04 19:41:04;;;;;;;44.20;18.77;;;1.50;77.70;;;;;;5009469;28;20180;-77
2022/02/04 19:43:31;;;;;;;47.87;19.87;;;1.50;77.70;;;;;;5010348;28;20710;-76
2022/02/04 19:46:22;;;;;;;48.87;21.43;;;1.50;77.60;;;;;;5008212;28;20188;-76
2022/02/04 19:48:48;;;;;;;63.27;23.33;;;1.40;77.60;;;;;;5001614;28;20748;-76
2022/02/04 20:26:05;;;;;;;38.83;19.37;;;1.20;80.20;;;;;;5006656;28;20725;-75